sensor_id;sensor_type;location;lat;lon;timestamp;temperature;humidity
18305;DHT22;9278;52.156;21.048;2022-10-16T00:01:07;14.90;99.90
18305;DHT22;9278;52.156;21.048;2022-10-16T00:03:36;14.90;99.90
18305;DHT22;9278;52.156;21.048;2022-10-16T00:06:05;14.90;99.90
18305;DHT22;9278;52.156;21.048;2022-10-16T00:08:35;14.90;99.90
18305;DHT22;9278;52.156;21.048;2022-10-16T00:11:06;14.90;99.90
18305;DHT22;9278;52.156;21.048;2022-10-16T00:13:36;14.90;99.90
18305;DHT22;9278;52.156;21.048;2022-10-16T00:16:05;14.90;99.90
18305;DHT22;9278;52.156;21.048;2022-10-16T00:18:34;15.00;99.90
18305;DHT22;9278;52.156;21.048;2022-10-16T00:21:04;14.90;99.90
18305;DHT22;9278;52.156;21.048;2022-10-16T00:23:34;14.80;99.90
18305;DHT22;9278;52.156;21.048;2022-10-16T00:26:05;14.80;99.90
18305;DHT22;9278;52.156;21.048;2022-10-16T00:28:34;14.90;99.90
18305;DHT22;9278;52.156;21.048;2022-10-16T00:31:03;14.80;99.90
18305;DHT22;9278;52.156;21.048;2022-10-16T00:33:32;14.90;99.90
18305;DHT22;9278;52.156;21.048;2022-10-16T00:36:02;14.80;99.90
18305;DHT22;9278;52.156;21.048;2022-10-16T00:38:30;14.80;99.90
18305;DHT22;9278;52.156;21.048;2022-10-16T00:41:00;14.80;99.90
18305;DHT22;9278;52.156;21.048;2022-10-16T00:43:38;14.70;99.90
18305;DHT22;9278;52.156;21.048;2022-10-16T00:46:13;14.70;99.90
18305;DHT22;9278;52.156;21.048;2022-10-16T00:48:47;14.70;99.90
18305;DHT22;9278;52.156;21.048;2022-10-16T00:51:19;14.60;99.90
18305;DHT22;9278;52.156;21.048;2022-10-16T00:53:49;14.60;99.90
18305;DHT22;9278;52.156;21.048;2022-10-16T00:56:19;14.80;99.90
18305;DHT22;9278;52.156;21.048;2022-10-16T00:58:47;14.70;99.90
18305;DHT22;9278;52.156;21.048;2022-10-16T01:01:16;14.70;99.90
18305;DHT22;9278;52.156;21.048;2022-10-16T01:03:44;14.70;99.90
18305;DHT22;9278;52.156;21.048;2022-10-16T01:06:24;14.80;99.90
18305;DHT22;9278;52.156;21.048;2022-10-16T01:09:06;14.80;99.90
18305;DHT22;9278;52.156;21.048;2022-10-16T01:11:45;14.80;99.90
18305;DHT22;9278;52.156;21.048;2022-10-16T01:14:22;14.80;99.90
18305;DHT22;9278;52.156;21.048;2022-10-16T01:16:55;14.90;99.90
18305;DHT22;9278;52.156;21.048;2022-10-16T01:19:43;14.90;99.90
18305;DHT22;9278;52.156;21.048;2022-10-16T01:22:13;14.90;99.90
18305;DHT22;9278;52.156;21.048;2022-10-16T01:24:45;14.90;99.90
18305;DHT22;9278;52.156;21.048;2022-10-16T01:27:22;14.90;99.90
18305;DHT22;9278;52.156;21.048;2022-10-16T01:29:56;14.90;99.90
18305;DHT22;9278;52.156;21.048;2022-10-16T01:32:32;14.80;99.90
18305;DHT22;9278;52.156;21.048;2022-10-16T01:35:04;14.80;99.90
18305;DHT22;9278;52.156;21.048;2022-10-16T01:37:36;14.80;99.90
18305;DHT22;9278;52.156;21.048;2022-10-16T01:40:10;14.80;99.90
18305;DHT22;9278;52.156;21.048;2022-10-16T01:42:42;14.80;99.90
18305;DHT22;9278;52.156;21.048;2022-10-16T01:45:14;14.80;99.90
18305;DHT22;9278;52.156;21.048;2022-10-16T01:47:45;14.80;99.90
18305;DHT22;9278;52.156;21.048;2022-10-16T01:50:15;14.80;99.90
18305;DHT22;9278;52.156;21.048;2022-10-16T01:52:49;14.80;99.90
18305;DHT22;9278;52.156;21.048;2022-10-16T01:55:23;14.80;99.90
18305;DHT22;9278;52.156;21.048;2022-10-16T01:57:54;14.80;99.90
18305;DHT22;9278;52.156;21.048;2022-10-16T02:00:23;14.80;99.90
18305;DHT22;9278;52.156;21.048;2022-10-16T02:02:54;14.80;99.90
18305;DHT22;9278;52.156;21.048;2022-10-16T02:05:26;14.70;99.90
18305;DHT22;9278;52.156;21.048;2022-10-16T02:07:56;14.70;99.90
18305;DHT22;9278;52.156;21.048;2022-10-16T02:10:29;14.60;99.90
18305;DHT22;9278;52.156;21.048;2022-10-16T02:13:03;14.70;99.90
18305;DHT22;9278;52.156;21.048;2022-10-16T02:15:32;14.70;99.90
18305;DHT22;9278;52.156;21.048;2022-10-16T02:18:01;14.70;99.90
18305;DHT22;9278;52.156;21.048;2022-10-16T02:20:34;14.70;99.90
18305;DHT22;9278;52.156;21.048;2022-10-16T02:23:07;14.70;99.90
18305;DHT22;9278;52.156;21.048;2022-10-16T02:25:40;14.70;99.90
18305;DHT22;9278;52.156;21.048;2022-10-16T02:28:13;14.60;99.90
18305;DHT22;9278;52.156;21.048;2022-10-16T02:30:46;14.60;99.90
18305;DHT22;9278;52.156;21.048;2022-10-16T02:33:18;14.60;99.90
18305;DHT22;9278;52.156;21.048;2022-10-16T02:35:48;14.60;99.90
18305;DHT22;9278;52.156;21.048;2022-10-16T02:38:18;14.50;99.90
18305;DHT22;9278;52.156;21.048;2022-10-16T02:40:48;14.50;99.90
18305;DHT22;9278;52.156;21.048;2022-10-16T02:43:18;14.50;99.90
18305;DHT22;9278;52.156;21.048;2022-10-16T02:45:47;14.50;99.90
18305;DHT22;9278;52.156;21.048;2022-10-16T02:48:15;14.40;99.90
18305;DHT22;9278;52.156;21.048;2022-10-16T02:50:43;14.40;99.90
18305;DHT22;9278;52.156;21.048;2022-10-16T02:53:11;14.40;99.90
18305;DHT22;9278;52.156;21.048;2022-10-16T02:55:40;14.40;99.90
18305;DHT22;9278;52.156;21.048;2022-10-16T02:58:08;14.40;99.90
18305;DHT22;9278;52.156;21.048;2022-10-16T03:00:38;14.50;99.90
18305;DHT22;9278;52.156;21.048;2022-10-16T03:03:06;14.50;99.90
18305;DHT22;9278;52.156;21.048;2022-10-16T03:05:35;14.40;99.90
18305;DHT22;9278;52.156;21.048;2022-10-16T03:08:03;14.40;99.90
18305;DHT22;9278;52.156;21.048;2022-10-16T03:10:31;14.40;99.90
18305;DHT22;9278;52.156;21.048;2022-10-16T03:13:00;14.40;99.90
18305;DHT22;9278;52.156;21.048;2022-10-16T03:15:28;14.40;99.90
18305;DHT22;9278;52.156;21.048;2022-10-16T03:17:59;14.40;99.90
18305;DHT22;9278;52.156;21.048;2022-10-16T03:20:27;14.40;99.90
18305;DHT22;9278;52.156;21.048;2022-10-16T03:22:55;14.30;99.90
18305;DHT22;9278;52.156;21.048;2022-10-16T03:25:24;14.30;99.90
18305;DHT22;9278;52.156;21.048;2022-10-16T03:27:52;14.30;99.90
18305;DHT22;9278;52.156;21.048;2022-10-16T03:30:20;14.30;99.90
18305;DHT22;9278;52.156;21.048;2022-10-16T03:32:48;14.30;99.90
18305;DHT22;9278;52.156;21.048;2022-10-16T03:35:22;14.40;99.90
18305;DHT22;9278;52.156;21.048;2022-10-16T03:37:51;14.40;99.90
18305;DHT22;9278;52.156;21.048;2022-10-16T03:40:20;14.30;99.90
18305;DHT22;9278;52.156;21.048;2022-10-16T03:42:48;14.40;99.90
18305;DHT22;9278;52.156;21.048;2022-10-16T03:45:16;14.30;99.90
18305;DHT22;9278;52.156;21.048;2022-10-16T03:47:44;14.40;99.90
18305;DHT22;9278;52.156;21.048;2022-10-16T03:50:13;14.30;99.90
18305;DHT22;9278;52.156;21.048;2022-10-16T03:52:42;14.30;99.90
18305;DHT22;9278;52.156;21.048;2022-10-16T03:55:10;14.30;99.90
18305;DHT22;9278;52.156;21.048;2022-10-16T03:57:39;14.30;99.90
18305;DHT22;9278;52.156;21.048;2022-10-16T04:00:08;14.30;99.90
18305;DHT22;9278;52.156;21.048;2022-10-16T04:02:39;14.30;99.90
18305;DHT22;9278;52.156;21.048;2022-10-16T04:05:08;14.30;99.90
18305;DHT22;9278;52.156;21.048;2022-10-16T04:07:36;14.10;99.90
18305;DHT22;9278;52.156;21.048;2022-10-16T04:10:07;13.90;99.90
18305;DHT22;9278;52.156;21.048;2022-10-16T04:12:35;13.70;99.90
18305;DHT22;9278;52.156;21.048;2022-10-16T04:15:04;13.70;99.90
18305;DHT22;9278;52.156;21.048;2022-10-16T04:17:32;13.80;99.90
18305;DHT22;9278;52.156;21.048;2022-10-16T04:20:01;13.80;99.90
18305;DHT22;9278;52.156;21.048;2022-10-16T04:22:29;13.70;99.90
18305;DHT22;9278;52.156;21.048;2022-10-16T04:24:57;13.50;99.90
18305;DHT22;9278;52.156;21.048;2022-10-16T04:27:27;13.40;99.90
18305;DHT22;9278;52.156;21.048;2022-10-16T04:29:58;13.40;99.90
18305;DHT22;9278;52.156;21.048;2022-10-16T04:32:27;13.50;99.90
18305;DHT22;9278;52.156;21.048;2022-10-16T04:34:55;13.70;99.90
18305;DHT22;9278;52.156;21.048;2022-10-16T04:37:24;13.70;99.90
18305;DHT22;9278;52.156;21.048;2022-10-16T04:39:54;13.80;99.90
18305;DHT22;9278;52.156;21.048;2022-10-16T04:42:22;13.90;99.90
18305;DHT22;9278;52.156;21.048;2022-10-16T04:44:52;13.90;99.90
18305;DHT22;9278;52.156;21.048;2022-10-16T04:47:20;13.90;99.90
18305;DHT22;9278;52.156;21.048;2022-10-16T04:49:48;13.80;99.90
18305;DHT22;9278;52.156;21.048;2022-10-16T04:52:16;13.80;99.90
18305;DHT22;9278;52.156;21.048;2022-10-16T04:54:45;13.80;99.90
18305;DHT22;9278;52.156;21.048;2022-10-16T04:57:14;13.80;99.90
18305;DHT22;9278;52.156;21.048;2022-10-16T04:59:42;13.80;99.90
18305;DHT22;9278;52.156;21.048;2022-10-16T05:02:12;13.90;99.90
18305;DHT22;9278;52.156;21.048;2022-10-16T05:04:40;13.90;99.90
18305;DHT22;9278;52.156;21.048;2022-10-16T05:07:08;13.70;99.90
18305;DHT22;9278;52.156;21.048;2022-10-16T05:09:37;13.70;99.90
18305;DHT22;9278;52.156;21.048;2022-10-16T05:12:05;13.50;99.90
18305;DHT22;9278;52.156;21.048;2022-10-16T05:14:33;13.40;99.90
18305;DHT22;9278;52.156;21.048;2022-10-16T05:17:01;13.30;99.90
18305;DHT22;9278;52.156;21.048;2022-10-16T05:19:31;13.30;99.90
18305;DHT22;9278;52.156;21.048;2022-10-16T05:21:59;13.50;99.90
18305;DHT22;9278;52.156;21.048;2022-10-16T05:24:27;13.70;99.90
18305;DHT22;9278;52.156;21.048;2022-10-16T05:26:56;13.80;99.90
18305;DHT22;9278;52.156;21.048;2022-10-16T05:29:24;13.90;99.90
18305;DHT22;9278;52.156;21.048;2022-10-16T05:31:53;13.90;99.90
18305;DHT22;9278;52.156;21.048;2022-10-16T05:34:21;13.80;99.90
18305;DHT22;9278;52.156;21.048;2022-10-16T05:36:51;13.70;99.90
18305;DHT22;9278;52.156;21.048;2022-10-16T05:39:19;13.50;99.90
18305;DHT22;9278;52.156;21.048;2022-10-16T05:41:49;13.40;99.90
18305;DHT22;9278;52.156;21.048;2022-10-16T05:44:19;13.30;99.90
18305;DHT22;9278;52.156;21.048;2022-10-16T05:46:47;13.10;99.90
18305;DHT22;9278;52.156;21.048;2022-10-16T05:49:16;13.10;99.90
18305;DHT22;9278;52.156;21.048;2022-10-16T05:51:44;13.00;99.90
18305;DHT22;9278;52.156;21.048;2022-10-16T05:54:14;13.00;99.90
18305;DHT22;9278;52.156;21.048;2022-10-16T05:56:42;13.00;99.90
18305;DHT22;9278;52.156;21.048;2022-10-16T05:59:11;13.00;99.90
18305;DHT22;9278;52.156;21.048;2022-10-16T06:01:39;13.00;99.90
18305;DHT22;9278;52.156;21.048;2022-10-16T06:04:08;13.00;99.90
18305;DHT22;9278;52.156;21.048;2022-10-16T06:06:37;13.00;99.90
18305;DHT22;9278;52.156;21.048;2022-10-16T06:09:05;13.10;99.90
18305;DHT22;9278;52.156;21.048;2022-10-16T06:11:36;13.10;99.90
18305;DHT22;9278;52.156;21.048;2022-10-16T06:14:04;13.20;99.90
18305;DHT22;9278;52.156;21.048;2022-10-16T06:16:34;13.30;99.90
18305;DHT22;9278;52.156;21.048;2022-10-16T06:19:03;13.30;99.90
18305;DHT22;9278;52.156;21.048;2022-10-16T06:21:33;13.40;99.90
18305;DHT22;9278;52.156;21.048;2022-10-16T06:24:01;13.40;99.90
18305;DHT22;9278;52.156;21.048;2022-10-16T06:26:30;13.50;99.90
18305;DHT22;9278;52.156;21.048;2022-10-16T06:29:00;13.50;99.90
18305;DHT22;9278;52.156;21.048;2022-10-16T06:31:29;13.60;99.90
18305;DHT22;9278;52.156;21.048;2022-10-16T06:34:00;13.70;99.90
18305;DHT22;9278;52.156;21.048;2022-10-16T06:36:29;13.80;99.90
18305;DHT22;9278;52.156;21.048;2022-10-16T06:38:57;13.90;99.90
18305;DHT22;9278;52.156;21.048;2022-10-16T06:41:25;14.00;99.90
18305;DHT22;9278;52.156;21.048;2022-10-16T06:43:53;14.10;99.90
18305;DHT22;9278;52.156;21.048;2022-10-16T06:46:24;14.00;99.90
18305;DHT22;9278;52.156;21.048;2022-10-16T06:48:53;14.20;99.90
18305;DHT22;9278;52.156;21.048;2022-10-16T06:51:22;14.30;99.90
18305;DHT22;9278;52.156;21.048;2022-10-16T06:53:52;14.40;99.90
18305;DHT22;9278;52.156;21.048;2022-10-16T06:56:31;14.50;99.90
18305;DHT22;9278;52.156;21.048;2022-10-16T06:59:00;14.60;99.90
18305;DHT22;9278;52.156;21.048;2022-10-16T07:01:30;14.70;99.90
18305;DHT22;9278;52.156;21.048;2022-10-16T07:04:00;15.10;99.90
18305;DHT22;9278;52.156;21.048;2022-10-16T07:06:31;15.30;99.90
18305;DHT22;9278;52.156;21.048;2022-10-16T07:09:03;15.50;99.90
18305;DHT22;9278;52.156;21.048;2022-10-16T07:11:32;15.80;99.90
18305;DHT22;9278;52.156;21.048;2022-10-16T07:14:00;16.00;99.90
18305;DHT22;9278;52.156;21.048;2022-10-16T07:16:32;16.30;99.90
18305;DHT22;9278;52.156;21.048;2022-10-16T07:19:02;16.40;99.90
18305;DHT22;9278;52.156;21.048;2022-10-16T07:21:33;16.20;99.90
18305;DHT22;9278;52.156;21.048;2022-10-16T07:24:04;16.30;99.90
18305;DHT22;9278;52.156;21.048;2022-10-16T07:26:34;16.20;99.90
18305;DHT22;9278;52.156;21.048;2022-10-16T07:29:03;16.40;99.90
18305;DHT22;9278;52.156;21.048;2022-10-16T07:31:33;16.60;99.90
18305;DHT22;9278;52.156;21.048;2022-10-16T07:34:01;16.60;99.90
18305;DHT22;9278;52.156;21.048;2022-10-16T07:36:29;16.80;99.90
18305;DHT22;9278;52.156;21.048;2022-10-16T07:38:58;16.70;99.90
18305;DHT22;9278;52.156;21.048;2022-10-16T07:41:27;16.60;99.90
18305;DHT22;9278;52.156;21.048;2022-10-16T07:43:55;16.40;99.90
18305;DHT22;9278;52.156;21.048;2022-10-16T07:46:27;16.10;99.90
18305;DHT22;9278;52.156;21.048;2022-10-16T07:48:57;16.10;99.90
18305;DHT22;9278;52.156;21.048;2022-10-16T07:51:26;16.30;99.90
18305;DHT22;9278;52.156;21.048;2022-10-16T07:53:55;16.60;99.90
18305;DHT22;9278;52.156;21.048;2022-10-16T07:56:23;16.80;99.90
18305;DHT22;9278;52.156;21.048;2022-10-16T07:58:52;17.20;99.90
18305;DHT22;9278;52.156;21.048;2022-10-16T08:01:20;17.50;99.90
18305;DHT22;9278;52.156;21.048;2022-10-16T08:03:50;17.70;99.90
18305;DHT22;9278;52.156;21.048;2022-10-16T08:06:21;17.80;99.90
18305;DHT22;9278;52.156;21.048;2022-10-16T08:08:54;17.70;99.90
18305;DHT22;9278;52.156;21.048;2022-10-16T08:11:23;17.70;99.90
18305;DHT22;9278;52.156;21.048;2022-10-16T08:13:51;17.50;99.90
18305;DHT22;9278;52.156;21.048;2022-10-16T08:16:20;17.70;99.90
18305;DHT22;9278;52.156;21.048;2022-10-16T08:18:49;17.60;99.90
18305;DHT22;9278;52.156;21.048;2022-10-16T08:21:21;17.60;99.90
18305;DHT22;9278;52.156;21.048;2022-10-16T08:23:50;17.70;99.90
18305;DHT22;9278;52.156;21.048;2022-10-16T08:26:24;17.80;99.90
18305;DHT22;9278;52.156;21.048;2022-10-16T08:28:53;18.00;99.90
18305;DHT22;9278;52.156;21.048;2022-10-16T08:31:21;18.00;99.90
18305;DHT22;9278;52.156;21.048;2022-10-16T08:33:50;17.90;99.90
18305;DHT22;9278;52.156;21.048;2022-10-16T08:36:21;18.40;99.90
18305;DHT22;9278;52.156;21.048;2022-10-16T08:38:49;18.60;99.90
18305;DHT22;9278;52.156;21.048;2022-10-16T08:41:30;18.60;99.90
18305;DHT22;9278;52.156;21.048;2022-10-16T08:47:04;18.50;99.90
18305;DHT22;9278;52.156;21.048;2022-10-16T08:49:37;18.40;99.90
18305;DHT22;9278;52.156;21.048;2022-10-16T08:52:11;18.40;99.90
18305;DHT22;9278;52.156;21.048;2022-10-16T08:54:43;18.40;99.90
18305;DHT22;9278;52.156;21.048;2022-10-16T08:57:15;18.60;99.90
18305;DHT22;9278;52.156;21.048;2022-10-16T08:59:50;18.60;99.90
18305;DHT22;9278;52.156;21.048;2022-10-16T09:02:25;18.60;99.90
18305;DHT22;9278;52.156;21.048;2022-10-16T09:05:08;18.60;99.90
18305;DHT22;9278;52.156;21.048;2022-10-16T09:07:47;18.80;99.90
18305;DHT22;9278;52.156;21.048;2022-10-16T09:10:27;18.80;99.90
18305;DHT22;9278;52.156;21.048;2022-10-16T09:13:02;18.50;99.90
18305;DHT22;9278;52.156;21.048;2022-10-16T09:15:37;18.40;99.90
18305;DHT22;9278;52.156;21.048;2022-10-16T09:18:12;18.80;99.90
18305;DHT22;9278;52.156;21.048;2022-10-16T09:20:49;18.80;99.90
18305;DHT22;9278;52.156;21.048;2022-10-16T09:23:25;19.10;99.90
18305;DHT22;9278;52.156;21.048;2022-10-16T09:25:59;19.10;99.90
18305;DHT22;9278;52.156;21.048;2022-10-16T09:28:27;19.30;99.90
18305;DHT22;9278;52.156;21.048;2022-10-16T09:30:55;19.20;99.90
18305;DHT22;9278;52.156;21.048;2022-10-16T09:33:27;19.40;99.90
18305;DHT22;9278;52.156;21.048;2022-10-16T09:35:57;19.70;99.90
18305;DHT22;9278;52.156;21.048;2022-10-16T09:38:29;19.90;99.90
18305;DHT22;9278;52.156;21.048;2022-10-16T09:41:00;19.90;99.90
18305;DHT22;9278;52.156;21.048;2022-10-16T09:43:34;20.30;99.90
18305;DHT22;9278;52.156;21.048;2022-10-16T09:46:05;20.70;99.90
18305;DHT22;9278;52.156;21.048;2022-10-16T09:48:36;20.90;99.90
18305;DHT22;9278;52.156;21.048;2022-10-16T09:51:24;20.80;99.90
18305;DHT22;9278;52.156;21.048;2022-10-16T09:53:59;20.90;99.90
18305;DHT22;9278;52.156;21.048;2022-10-16T09:56:29;20.90;99.90
18305;DHT22;9278;52.156;21.048;2022-10-16T09:59:01;20.80;99.90
18305;DHT22;9278;52.156;21.048;2022-10-16T10:01:35;20.40;99.90
18305;DHT22;9278;52.156;21.048;2022-10-16T10:04:05;20.80;99.90
18305;DHT22;9278;52.156;21.048;2022-10-16T10:06:35;20.70;99.90
18305;DHT22;9278;52.156;21.048;2022-10-16T10:09:16;20.50;99.90
18305;DHT22;9278;52.156;21.048;2022-10-16T10:11:48;20.80;99.90
18305;DHT22;9278;52.156;21.048;2022-10-16T10:14:21;20.80;99.90
18305;DHT22;9278;52.156;21.048;2022-10-16T10:16:51;20.80;99.90
18305;DHT22;9278;52.156;21.048;2022-10-16T10:19:21;20.60;99.90
18305;DHT22;9278;52.156;21.048;2022-10-16T10:21:53;20.40;99.90
18305;DHT22;9278;52.156;21.048;2022-10-16T10:24:23;20.70;99.90
18305;DHT22;9278;52.156;21.048;2022-10-16T10:26:57;20.70;99.90
18305;DHT22;9278;52.156;21.048;2022-10-16T10:29:43;21.00;99.90
18305;DHT22;9278;52.156;21.048;2022-10-16T10:32:21;21.00;99.90
18305;DHT22;9278;52.156;21.048;2022-10-16T10:35:05;21.10;99.90
18305;DHT22;9278;52.156;21.048;2022-10-16T10:37:51;21.20;99.90
18305;DHT22;9278;52.156;21.048;2022-10-16T10:40:34;21.30;99.90
18305;DHT22;9278;52.156;21.048;2022-10-16T10:43:16;21.40;99.90
18305;DHT22;9278;52.156;21.048;2022-10-16T10:45:49;21.90;99.90
18305;DHT22;9278;52.156;21.048;2022-10-16T10:48:29;21.80;99.90
18305;DHT22;9278;52.156;21.048;2022-10-16T10:51:05;22.00;99.90
18305;DHT22;9278;52.156;21.048;2022-10-16T10:53:43;21.90;99.90
18305;DHT22;9278;52.156;21.048;2022-10-16T10:56:35;22.00;99.90
18305;DHT22;9278;52.156;21.048;2022-10-16T11:02:23;21.80;99.90
18305;DHT22;9278;52.156;21.048;2022-10-16T11:05:19;21.90;99.90
18305;DHT22;9278;52.156;21.048;2022-10-16T11:07:52;22.00;99.90
18305;DHT22;9278;52.156;21.048;2022-10-16T11:10:24;22.10;99.90
18305;DHT22;9278;52.156;21.048;2022-10-16T11:12:58;22.00;99.90
18305;DHT22;9278;52.156;21.048;2022-10-16T11:15:30;21.80;99.90
18305;DHT22;9278;52.156;21.048;2022-10-16T11:18:04;21.80;99.90
18305;DHT22;9278;52.156;21.048;2022-10-16T11:20:37;21.60;99.90
18305;DHT22;9278;52.156;21.048;2022-10-16T11:23:11;21.70;99.90
18305;DHT22;9278;52.156;21.048;2022-10-16T11:25:43;21.50;99.90
18305;DHT22;9278;52.156;21.048;2022-10-16T11:28:15;21.30;99.90
18305;DHT22;9278;52.156;21.048;2022-10-16T11:30:47;21.70;99.90
18305;DHT22;9278;52.156;21.048;2022-10-16T11:33:27;21.60;99.90
18305;DHT22;9278;52.156;21.048;2022-10-16T11:36:04;21.60;99.90
18305;DHT22;9278;52.156;21.048;2022-10-16T11:38:39;21.60;99.90
18305;DHT22;9278;52.156;21.048;2022-10-16T11:41:17;21.60;99.90
18305;DHT22;9278;52.156;21.048;2022-10-16T11:43:54;21.40;99.90
18305;DHT22;9278;52.156;21.048;2022-10-16T11:46:26;21.50;99.90
18305;DHT22;9278;52.156;21.048;2022-10-16T11:49:00;21.50;99.90
18305;DHT22;9278;52.156;21.048;2022-10-16T11:51:35;21.60;99.90
18305;DHT22;9278;52.156;21.048;2022-10-16T11:54:08;21.60;99.90
18305;DHT22;9278;52.156;21.048;2022-10-16T11:56:43;21.60;99.90
18305;DHT22;9278;52.156;21.048;2022-10-16T11:59:20;21.40;99.90
18305;DHT22;9278;52.156;21.048;2022-10-16T12:01:57;21.40;99.90
18305;DHT22;9278;52.156;21.048;2022-10-16T12:04:33;21.30;99.90
18305;DHT22;9278;52.156;21.048;2022-10-16T12:07:05;21.60;99.90
18305;DHT22;9278;52.156;21.048;2022-10-16T12:09:38;21.70;99.90
18305;DHT22;9278;52.156;21.048;2022-10-16T12:12:24;21.70;99.90
18305;DHT22;9278;52.156;21.048;2022-10-16T12:15:15;21.80;99.90
18305;DHT22;9278;52.156;21.048;2022-10-16T12:18:01;21.80;99.90
18305;DHT22;9278;52.156;21.048;2022-10-16T12:20:30;21.70;99.90
18305;DHT22;9278;52.156;21.048;2022-10-16T12:23:01;21.60;99.90
18305;DHT22;9278;52.156;21.048;2022-10-16T12:25:31;21.50;99.90
18305;DHT22;9278;52.156;21.048;2022-10-16T12:28:02;21.50;99.90
18305;DHT22;9278;52.156;21.048;2022-10-16T12:30:35;21.40;99.90
18305;DHT22;9278;52.156;21.048;2022-10-16T12:33:05;21.20;99.90
18305;DHT22;9278;52.156;21.048;2022-10-16T12:35:43;21.10;99.90
18305;DHT22;9278;52.156;21.048;2022-10-16T12:38:17;21.00;99.90
18305;DHT22;9278;52.156;21.048;2022-10-16T12:40:47;21.00;99.90
18305;DHT22;9278;52.156;21.048;2022-10-16T12:43:34;21.10;99.90
18305;DHT22;9278;52.156;21.048;2022-10-16T12:46:22;21.00;99.90
18305;DHT22;9278;52.156;21.048;2022-10-16T12:48:50;21.20;99.90
18305;DHT22;9278;52.156;21.048;2022-10-16T12:51:35;21.20;99.90
18305;DHT22;9278;52.156;21.048;2022-10-16T12:54:11;21.30;99.90
18305;DHT22;9278;52.156;21.048;2022-10-16T12:56:46;21.20;99.90
18305;DHT22;9278;52.156;21.048;2022-10-16T12:59:25;21.40;99.90
18305;DHT22;9278;52.156;21.048;2022-10-16T13:02:11;21.60;99.90
18305;DHT22;9278;52.156;21.048;2022-10-16T13:04:51;21.70;99.90
18305;DHT22;9278;52.156;21.048;2022-10-16T13:07:44;21.90;99.90
18305;DHT22;9278;52.156;21.048;2022-10-16T13:10:23;21.60;99.90
18305;DHT22;9278;52.156;21.048;2022-10-16T13:13:11;21.50;99.90
18305;DHT22;9278;52.156;21.048;2022-10-16T13:15:50;21.60;99.90
18305;DHT22;9278;52.156;21.048;2022-10-16T13:18:26;21.60;99.90
18305;DHT22;9278;52.156;21.048;2022-10-16T13:21:12;21.30;99.90
18305;DHT22;9278;52.156;21.048;2022-10-16T13:23:49;21.20;99.90
18305;DHT22;9278;52.156;21.048;2022-10-16T13:26:29;20.70;99.90
18305;DHT22;9278;52.156;21.048;2022-10-16T13:28:59;20.60;99.90
18305;DHT22;9278;52.156;21.048;2022-10-16T13:31:29;20.60;99.90
18305;DHT22;9278;52.156;21.048;2022-10-16T13:33:59;20.60;99.90
18305;DHT22;9278;52.156;21.048;2022-10-16T13:36:33;20.70;99.90
18305;DHT22;9278;52.156;21.048;2022-10-16T13:39:12;20.60;99.90
18305;DHT22;9278;52.156;21.048;2022-10-16T13:41:41;20.60;99.90
18305;DHT22;9278;52.156;21.048;2022-10-16T13:44:14;20.50;99.90
18305;DHT22;9278;52.156;21.048;2022-10-16T13:46:43;20.60;99.90
18305;DHT22;9278;52.156;21.048;2022-10-16T13:49:15;20.70;99.90
18305;DHT22;9278;52.156;21.048;2022-10-16T13:51:54;20.60;99.90
18305;DHT22;9278;52.156;21.048;2022-10-16T13:54:23;20.40;99.90
18305;DHT22;9278;52.156;21.048;2022-10-16T13:56:51;20.40;99.90
18305;DHT22;9278;52.156;21.048;2022-10-16T13:59:36;20.50;99.90
18305;DHT22;9278;52.156;21.048;2022-10-16T14:02:14;20.50;99.90
18305;DHT22;9278;52.156;21.048;2022-10-16T14:04:45;20.60;99.90
18305;DHT22;9278;52.156;21.048;2022-10-16T14:07:18;20.60;99.90
18305;DHT22;9278;52.156;21.048;2022-10-16T14:09:49;20.60;99.90
18305;DHT22;9278;52.156;21.048;2022-10-16T14:12:18;20.50;99.90
18305;DHT22;9278;52.156;21.048;2022-10-16T14:14:53;20.50;99.90
18305;DHT22;9278;52.156;21.048;2022-10-16T14:17:24;20.40;99.90
18305;DHT22;9278;52.156;21.048;2022-10-16T14:19:56;20.40;99.90
18305;DHT22;9278;52.156;21.048;2022-10-16T14:22:34;20.30;99.90
18305;DHT22;9278;52.156;21.048;2022-10-16T14:25:20;20.20;99.90
18305;DHT22;9278;52.156;21.048;2022-10-16T14:27:57;20.20;99.90
18305;DHT22;9278;52.156;21.048;2022-10-16T14:30:33;20.30;99.90
18305;DHT22;9278;52.156;21.048;2022-10-16T14:33:04;20.20;99.90
18305;DHT22;9278;52.156;21.048;2022-10-16T14:35:36;20.20;99.90
18305;DHT22;9278;52.156;21.048;2022-10-16T14:38:06;20.20;99.90
18305;DHT22;9278;52.156;21.048;2022-10-16T14:40:47;20.30;99.90
18305;DHT22;9278;52.156;21.048;2022-10-16T14:43:20;20.30;99.90
18305;DHT22;9278;52.156;21.048;2022-10-16T14:45:52;20.30;99.90
18305;DHT22;9278;52.156;21.048;2022-10-16T14:48:21;20.30;99.90
18305;DHT22;9278;52.156;21.048;2022-10-16T14:50:51;20.30;99.90
18305;DHT22;9278;52.156;21.048;2022-10-16T14:53:19;20.30;99.90
18305;DHT22;9278;52.156;21.048;2022-10-16T14:55:48;20.30;99.90
18305;DHT22;9278;52.156;21.048;2022-10-16T14:58:18;20.10;99.90
18305;DHT22;9278;52.156;21.048;2022-10-16T15:00:47;20.00;99.90
18305;DHT22;9278;52.156;21.048;2022-10-16T15:03:15;20.00;99.90
18305;DHT22;9278;52.156;21.048;2022-10-16T15:05:44;19.90;99.90
18305;DHT22;9278;52.156;21.048;2022-10-16T15:08:13;19.90;99.90
18305;DHT22;9278;52.156;21.048;2022-10-16T15:10:44;19.80;99.90
18305;DHT22;9278;52.156;21.048;2022-10-16T15:13:13;19.70;99.90
18305;DHT22;9278;52.156;21.048;2022-10-16T15:15:43;19.60;99.90
18305;DHT22;9278;52.156;21.048;2022-10-16T15:18:11;19.50;99.90
18305;DHT22;9278;52.156;21.048;2022-10-16T15:20:41;19.40;99.90
18305;DHT22;9278;52.156;21.048;2022-10-16T15:23:15;19.30;99.90
18305;DHT22;9278;52.156;21.048;2022-10-16T15:25:45;19.30;99.90
18305;DHT22;9278;52.156;21.048;2022-10-16T15:28:15;19.30;99.90
18305;DHT22;9278;52.156;21.048;2022-10-16T15:30:43;19.30;99.90
18305;DHT22;9278;52.156;21.048;2022-10-16T15:33:14;19.20;99.90
18305;DHT22;9278;52.156;21.048;2022-10-16T15:35:46;19.20;99.90
18305;DHT22;9278;52.156;21.048;2022-10-16T15:38:18;19.10;99.90
18305;DHT22;9278;52.156;21.048;2022-10-16T15:40:46;19.10;99.90
18305;DHT22;9278;52.156;21.048;2022-10-16T15:43:15;19.10;99.90
18305;DHT22;9278;52.156;21.048;2022-10-16T15:45:43;19.00;99.90
18305;DHT22;9278;52.156;21.048;2022-10-16T15:48:12;19.00;99.90
18305;DHT22;9278;52.156;21.048;2022-10-16T15:50:40;19.00;99.90
18305;DHT22;9278;52.156;21.048;2022-10-16T15:53:10;19.00;99.90
18305;DHT22;9278;52.156;21.048;2022-10-16T15:55:40;19.00;99.90
18305;DHT22;9278;52.156;21.048;2022-10-16T15:58:09;19.00;99.90
18305;DHT22;9278;52.156;21.048;2022-10-16T16:00:37;18.90;99.90
18305;DHT22;9278;52.156;21.048;2022-10-16T16:03:05;18.90;99.90
18305;DHT22;9278;52.156;21.048;2022-10-16T16:05:37;18.90;99.90